Time;durP1;ratioP1;P1;durP2;ratioP2;P2;SDS_P1;SDS_P2;PMS_P1;PMS_P2;Temp;Humidity;BMP_temperature;BMP_pressure;BME280_temperature;BME280_humidity;BME280_pressure;Samples;Min_cycle;Max_cycle;Signal;HPM_P1;HPM_P2
2021/07/03 00:02:38;;;;;;;;;;;;;;;22.20;53.05;101274.69;5028542;28;98506;-90
2021/07/03 00:05:05;;;;;;;;;;;;;;;21.96;53.78;101273.84;5029006;28;96690;-90
2021/07/03 00:07:32;;;;;;;;;;;;;;;21.87;54.14;101275.34;5027513;28;96802;-89
2021/07/03 00:09:59;;;;;;;;;;;;;;;22.00;53.93;101275.31;5027369;28;97192;-90
2021/07/03 00:12:26;;;;;;;;;;;;;;;22.05;53.96;101281.25;5033887;28;99929;-89
2021/07/03 00:14:58;;;;;;;;;;;;;;;22.13;53.71;101287.72;5031206;28;96733;-88
2021/07/03 00:17:25;;;;;;;;;;;;;;;22.00;54.05;101283.38;5031773;28;97722;-89
2021/07/03 00:19:54;;;;;;;;;;;;;;;22.03;54.35;101278.66;5018993;28;101327;-91
2021/07/03 00:22:22;;;;;;;;;;;;;;;22.11;53.82;101288.84;5027641;28;100983;-91
2021/07/03 00:24:48;;;;;;;;;;;;;;;21.97;54.13;101279.13;5020926;28;98407;-88
2021/07/03 00:27:15;;;;;;;;;;;;;;;22.02;54.39;101287.69;5025774;28;96949;-88
2021/07/03 00:29:42;;;;;;;;;;;;;;;22.04;54.27;101287.59;5076931;22;100219;-88
2021/07/03 00:32:09;;;;;;;;;;;;;;;21.76;55.34;101292.28;5086205;27;96773;-88
2021/07/03 00:34:35;;;;;;;;;;;;;;;21.91;55.00;101295.69;5063474;22;96842;-89
2021/07/03 00:37:04;;;;;;;;;;;;;;;22.25;53.96;101294.88;5046625;28;96623;-90
2021/07/03 00:39:31;;;;;;;;;;;;;;;22.11;54.37;101297.78;5046182;27;100322;-89
2021/07/03 00:42:05;;;;;;;;;;;;;;;21.88;54.93;101288.69;5049139;27;98516;-89
2021/07/03 00:44:32;;;;;;;;;;;;;;;21.83;55.17;101301.63;5062340;27;96517;-89
2021/07/03 00:47:00;;;;;;;;;;;;;;;22.05;54.86;101297.38;5058889;28;96849;-88
2021/07/03 00:49:27;;;;;;;;;;;;;;;21.86;55.37;101290.63;5060564;27;99003;-87
2021/07/03 00:51:53;;;;;;;;;;;;;;;21.90;55.12;101293.97;5066296;27;96787;-88
2021/07/03 00:54:30;;;;;;;;;;;;;;;21.87;55.18;101286.09;5055756;27;96265;-88
2021/07/03 00:57:02;;;;;;;;;;;;;;;22.07;54.83;101285.50;5127205;22;100105;-87
2021/07/03 00:59:30;;;;;;;;;;;;;;;21.82;55.28;101286.44;5046449;27;97680;-91
2021/07/03 01:01:56;;;;;;;;;;;;;;;22.05;54.87;101292.84;5064057;27;97392;-89
2021/07/03 01:04:23;;;;;;;;;;;;;;;21.88;55.49;101290.50;5025432;28;96527;-88
2021/07/03 01:06:50;;;;;;;;;;;;;;;21.92;55.34;101286.66;5048503;28;96538;-89
2021/07/03 01:09:19;;;;;;;;;;;;;;;22.02;54.90;101278.75;5034434;28;100670;-88
2021/07/03 01:11:52;;;;;;;;;;;;;;;22.10;54.80;101289.81;5027094;28;101593;-89
2021/07/03 01:14:20;;;;;;;;;;;;;;;21.93;55.04;101290.16;5042311;27;96799;-88
2021/07/03 01:16:47;;;;;;;;;;;;;;;21.78;55.39;101289.50;5050204;27;97074;-89
2021/07/03 01:19:14;;;;;;;;;;;;;;;21.81;55.60;101279.34;5054608;27;100129;-90
2021/07/03 01:21:41;;;;;;;;;;;;;;;21.72;55.49;101280.03;5047466;27;98918;-90
2021/07/03 01:24:11;;;;;;;;;;;;;;;21.52;56.01;101288.72;5043991;28;97022;-89
2021/07/03 01:26:42;;;;;;;;;;;;;;;21.79;55.65;101281.28;5035756;27;97641;-91
2021/07/03 01:29:09;;;;;;;;;;;;;;;21.67;55.93;101287.56;5049786;27;99379;-89
2021/07/03 01:31:35;;;;;;;;;;;;;;;21.65;55.95;101281.47;5062034;22;100227;-88
2021/07/03 01:34:02;;;;;;;;;;;;;;;21.09;57.47;101286.34;5059364;27;95930;-86
2021/07/03 01:36:29;;;;;;;;;;;;;;;21.19;57.26;101283.94;5054748;27;96720;-89
2021/07/03 01:38:55;;;;;;;;;;;;;;;21.57;56.57;101286.53;5040516;28;99465;-89
2021/07/03 01:41:24;;;;;;;;;;;;;;;21.63;56.34;101290.59;5060855;27;99857;-89
2021/07/03 01:43:51;;;;;;;;;;;;;;;21.45;56.79;101282.06;5051285;27;96840;-89
2021/07/03 01:46:21;;;;;;;;;;;;;;;21.55;56.33;101277.72;5051653;27;96889;-88
2021/07/03 01:48:48;;;;;;;;;;;;;;;21.43;57.00;101275.91;5046752;28;99283;-88
2021/07/03 01:51:14;;;;;;;;;;;;;;;21.46;56.79;101273.03;5039521;28;96711;-89
2021/07/03 01:53:41;;;;;;;;;;;;;;;21.51;56.65;101276.22;5045162;28;96938;-88
2021/07/03 01:56:08;;;;;;;;;;;;;;;21.65;56.24;101273.41;5044647;28;96845;-88
2021/07/03 01:58:37;;;;;;;;;;;;;;;21.73;56.17;101270.97;5031220;28;100561;-88
2021/07/03 02:01:06;;;;;;;;;;;;;;;21.56;56.55;101271.38;5023882;28;97836;-88
2021/07/03 02:03:36;;;;;;;;;;;;;;;21.39;57.01;101271.75;5042105;27;96673;-89
2021/07/03 02:06:04;;;;;;;;;;;;;;;21.11;57.81;101272.81;5042863;28;96774;-88
2021/07/03 02:08:33;;;;;;;;;;;;;;;21.25;57.34;101274.56;5037151;28;99815;-89
2021/07/03 02:11:05;;;;;;;;;;;;;;;21.39;56.86;101266.38;5035203;28;100141;-90
2021/07/03 02:13:32;;;;;;;;;;;;;;;21.28;57.47;101268.94;5046338;27;96853;-89
2021/07/03 02:16:03;;;;;;;;;;;;;;;21.39;56.87;101274.44;5038591;27;97687;-89
2021/07/03 02:18:32;;;;;;;;;;;;;;;21.29;57.48;101270.69;5049889;28;98512;-90
2021/07/03 02:20:59;;;;;;;;;;;;;;;21.01;57.70;101266.38;5032461;28;97959;-89
2021/07/03 02:23:25;;;;;;;;;;;;;;;21.44;56.78;101266.88;5054799;28;96683;-89
2021/07/03 02:25:52;;;;;;;;;;;;;;;21.48;56.44;101274.59;5058901;27;96082;-90
2021/07/03 02:28:20;;;;;;;;;;;;;;;21.43;56.73;101271.41;5054406;28;100172;-89
2021/07/03 02:30:47;;;;;;;;;;;;;;;21.29;56.93;101273.38;5046745;28;100682;-89
2021/07/03 02:33:15;;;;;;;;;;;;;;;21.65;55.85;101265.31;5056667;27;96827;-88
2021/07/03 02:35:42;;;;;;;;;;;;;;;21.55;56.06;101263.41;5056429;27;96928;-89
2021/07/03 02:38:08;;;;;;;;;;;;;;;21.20;57.28;101265.97;5058370;27;96969;-88
2021/07/03 02:40:35;;;;;;;;;;;;;;;20.97;57.67;101259.50;5055019;28;99196;-89
2021/07/03 02:43:02;;;;;;;;;;;;;;;21.14;57.42;101259.16;5043774;27;96793;-89
2021/07/03 02:45:29;;;;;;;;;;;;;;;21.08;57.16;101251.53;5025917;28;96678;-88
2021/07/03 02:47:57;;;;;;;;;;;;;;;21.04;57.86;101258.09;5040736;27;98391;-88
2021/07/03 02:53:12;;;;;;;;;;;;;;;20.93;57.97;101256.19;5038488;28;96852;-89
2021/07/03 02:55:39;;;;;;;;;;;;;;;20.84;58.30;101259.50;5044331;28;96590;-88
2021/07/03 02:58:07;;;;;;;;;;;;;;;20.97;57.73;101249.63;5030902;28;98911;-89
2021/07/03 03:00:33;;;;;;;;;;;;;;;20.93;57.83;101261.56;5039835;28;100594;-90
2021/07/03 03:03:00;;;;;;;;;;;;;;;20.85;58.08;101258.53;5041177;28;98193;-89
2021/07/03 03:05:44;;;;;;;;;;;;;;;20.51;58.80;101253.78;5047730;27;96807;-89
2021/07/03 03:08:12;;;;;;;;;;;;;;;20.69;58.65;101257.88;5033447;28;97519;-90
2021/07/03 03:10:43;;;;;;;;;;;;;;;20.62;58.99;101260.13;5028314;28;97586;-90
2021/07/03 03:13:09;;;;;;;;;;;;;;;21.02;57.84;101257.34;5055376;27;96804;-89
2021/07/03 03:15:36;;;;;;;;;;;;;;;21.13;57.34;101260.16;5045224;28;96663;-88
2021/07/03 03:18:03;;;;;;;;;;;;;;;20.99;57.58;101257.56;5048792;28;101208;-89
2021/07/03 03:20:35;;;;;;;;;;;;;;;21.17;57.03;101258.97;5061635;27;96971;-86
2021/07/03 03:23:08;;;;;;;;;;;;;;;21.27;56.87;101262.72;5029701;22;96659;-90
2021/07/03 03:25:46;;;;;;;;;;;;;;;21.38;56.56;101261.97;4964605;28;96810;-87
2021/07/03 03:28:15;;;;;;;;;;;;;;;21.39;56.45;101258.31;4984792;28;98201;-88
2021/07/03 03:30:43;;;;;;;;;;;;;;;21.53;56.17;101262.69;4987391;28;100520;-87
2021/07/03 03:33:11;;;;;;;;;;;;;;;21.37;56.73;101263.78;4981537;28;96734;-88
2021/07/03 03:35:40;;;;;;;;;;;;;;;21.19;56.79;101266.94;4986645;28;96750;-85
2021/07/03 03:38:06;;;;;;;;;;;;;;;21.03;57.26;101272.50;4976945;28;99332;-89
2021/07/03 03:40:36;;;;;;;;;;;;;;;21.08;57.19;101273.88;4984021;28;99037;-89
2021/07/03 03:43:04;;;;;;;;;;;;;;;21.00;57.63;101272.72;4969293;28;97087;-88
2021/07/03 03:48:11;;;;;;;;;;;;;;;21.10;57.50;101276.47;4986128;28;100271;-90
2021/07/03 03:50:41;;;;;;;;;;;;;;;20.88;57.74;101277.13;4993222;28;101081;-89
2021/07/03 03:53:09;;;;;;;;;;;;;;;20.59;58.91;101275.63;5004616;28;96822;-88
2021/07/03 03:55:35;;;;;;;;;;;;;;;20.88;58.02;101274.44;4986192;28;96565;-88
2021/07/03 03:58:02;;;;;;;;;;;;;;;21.04;57.33;101268.84;5006722;28;99621;-88
2021/07/03 04:00:29;;;;;;;;;;;;;;;21.41;56.42;101267.09;5002683;27;99836;-86
2021/07/03 04:02:56;;;;;;;;;;;;;;;21.41;55.94;101264.41;4996292;28;96376;-87
2021/07/03 04:05:23;;;;;;;;;;;;;;;21.72;55.17;101261.22;5011923;28;96599;-87
2021/07/03 04:07:54;;;;;;;;;;;;;;;21.80;54.96;101263.31;5011920;28;99385;-86
2021/07/03 04:10:21;;;;;;;;;;;;;;;21.54;55.63;101259.84;5020654;27;96827;-86
2021/07/03 04:12:47;;;;;;;;;;;;;;;21.65;55.53;101265.31;4990445;28;96002;-83
2021/07/03 04:15:14;;;;;;;;;;;;;;;21.65;55.22;101273.41;5005261;28;96302;-85
2021/07/03 04:17:41;;;;;;;;;;;;;;;21.70;55.43;101267.66;5003464;28;99991;-83
2021/07/03 04:20:09;;;;;;;;;;;;;;;21.72;55.57;101271.13;4994462;28;96860;-85
2021/07/03 04:22:37;;;;;;;;;;;;;;;21.78;54.68;101263.44;5018563;27;95877;-82
2021/07/03 04:25:11;;;;;;;;;;;;;;;21.92;54.59;101266.94;5033333;27;96884;-87
2021/07/03 04:30:40;;;;;;;;;;;;;;;21.94;54.63;101262.28;5029057;27;96303;-82
2021/07/03 04:33:07;;;;;;;;;;;;;;;21.82;54.80;101270.31;5024782;28;96225;-85
2021/07/03 04:35:34;;;;;;;;;;;;;;;22.02;54.35;101265.31;5032021;28;96081;-83
2021/07/03 04:38:01;;;;;;;;;;;;;;;22.27;53.88;101266.03;5023413;28;99482;-81
2021/07/03 04:40:29;;;;;;;;;;;;;;;22.16;53.70;101271.38;5024245;28;99166;-82
2021/07/03 04:42:57;;;;;;;;;;;;;;;22.06;54.29;101259.56;5024610;28;96524;-83
2021/07/03 04:45:24;;;;;;;;;;;;;;;22.27;53.89;101262.47;5041154;28;96025;-82
2021/07/03 04:47:52;;;;;;;;;;;;;;;22.53;52.89;101260.47;5044269;28;97010;-82
2021/07/03 04:50:19;;;;;;;;;;;;;;;22.62;52.74;101271.41;5044118;27;99241;-86
2021/07/03 04:52:48;;;;;;;;;;;;;;;22.74;52.16;101264.22;5044414;27;95945;-86
2021/07/03 04:55:18;;;;;;;;;;;;;;;22.88;51.82;101263.16;5026511;27;98007;-83
2021/07/03 04:57:54;;;;;;;;;;;;;;;23.11;51.27;101269.41;5042903;27;100346;-85
2021/07/03 05:00:20;;;;;;;;;;;;;;;22.89;51.37;101267.56;5026369;28;97563;-90
2021/07/03 05:02:47;;;;;;;;;;;;;;;22.99;51.63;101264.00;5043376;27;96439;-88
2021/07/03 05:05:15;;;;;;;;;;;;;;;22.87;51.58;101261.44;5029252;28;96704;-86
2021/07/03 05:07:42;;;;;;;;;;;;;;;22.78;51.93;101271.06;5006714;28;100185;-88
2021/07/03 05:10:10;;;;;;;;;;;;;;;23.08;51.42;101275.03;5005954;28;99311;-90
2021/07/03 05:12:37;;;;;;;;;;;;;;;23.17;51.20;101269.75;5005190;28;96727;-89
2021/07/03 05:15:09;;;;;;;;;;;;;;;22.94;51.56;101260.81;5005680;28;96677;-90
2021/07/03 05:17:38;;;;;;;;;;;;;;;22.23;53.24;101275.31;5004721;28;99665;-90
2021/07/03 05:20:07;;;;;;;;;;;;;;;22.63;52.47;101265.03;5005016;28;101091;-90
2021/07/03 05:22:33;;;;;;;;;;;;;;;22.82;52.37;101275.28;5019487;28;96813;-90
2021/07/03 05:25:02;;;;;;;;;;;;;;;22.59;52.50;101268.06;5002187;28;96704;-90
2021/07/03 05:27:28;;;;;;;;;;;;;;;22.66;52.46;101264.78;5025940;28;100469;-89
2021/07/03 05:29:55;;;;;;;;;;;;;;;22.82;52.07;101269.88;4993694;28;98644;-89
2021/07/03 05:37:45;;;;;;;;;;;;;;;22.86;52.34;101273.19;5008168;28;98045;-89
2021/07/03 05:40:17;;;;;;;;;;;;;;;22.79;52.05;101277.31;5004836;28;96862;-91
2021/07/03 05:42:51;;;;;;;;;;;;;;;23.05;51.52;101278.81;4998281;28;96553;-90
2021/07/03 05:45:18;;;;;;;;;;;;;;;23.10;51.34;101273.09;5021751;28;96892;-87
2021/07/03 05:53:12;;;;;;;;;;;;;;;23.51;50.43;101283.25;5023285;28;98260;-88
2021/07/03 05:55:39;;;;;;;;;;;;;;;23.49;50.31;101283.41;5025948;28;96127;-87
2021/07/03 05:58:05;;;;;;;;;;;;;;;23.45;50.24;101285.44;5110535;22;97522;-88
2021/07/03 06:03:15;;;;;;;;;;;;;;;23.83;49.30;101292.28;5041203;27;97430;-89
2021/07/03 06:05:45;;;;;;;;;;;;;;;24.29;47.81;101280.38;5057827;27;96731;-88
2021/07/03 06:10:55;;;;;;;;;;;;;;;24.18;47.91;101279.41;5044357;28;98752;-88
2021/07/03 06:13:21;;;;;;;;;;;;;;;24.54;47.00;101280.03;5037288;28;96996;-88
2021/07/03 06:15:56;;;;;;;;;;;;;;;24.84;46.76;101282.78;5065769;27;96612;-88
2021/07/03 06:18:26;;;;;;;;;;;;;;;25.12;45.64;101275.00;5057382;27;99310;-88
2021/07/03 06:20:54;;;;;;;;;;;;;;;25.89;44.02;101272.53;5037099;28;98695;-87
2021/07/03 06:23:23;;;;;;;;;;;;;;;25.50;44.80;101267.03;5042166;27;96742;-90
2021/07/03 06:31:17;;;;;;;;;;;;;;;25.09;44.89;101267.13;5055691;27;98870;-87
2021/07/03 06:33:50;;;;;;;;;;;;;;;24.26;45.82;101268.00;5056303;28;97984;-89
2021/07/03 06:36:19;;;;;;;;;;;;;;;24.92;44.88;101269.50;5031422;28;96562;-88
2021/07/03 06:41:29;;;;;;;;;;;;;;;25.12;44.50;101275.00;5060818;27;98371;-87
2021/07/03 06:43:56;;;;;;;;;;;;;;;25.74;43.46;101281.06;5057949;27;96764;-89
2021/07/03 06:59:27;;;;;;;;;;;;;;;25.58;42.80;101269.94;5036920;28;97315;-89
2021/07/03 07:04:32;;;;;;;;;;;;;;;26.21;41.86;101267.72;5575424;22;99299;-88
2021/07/03 07:06:59;;;;;;;;;;;;;;;26.18;41.76;101262.59;5046944;28;96970;-88
2021/07/03 07:09:28;;;;;;;;;;;;;;;25.99;42.23;101259.91;5055956;27;97644;-88
2021/07/03 07:12:00;;;;;;;;;;;;;;;25.92;42.53;101267.72;5057225;27;99225;-89
2021/07/03 07:14:29;;;;;;;;;;;;;;;25.71;42.82;101265.13;5057400;28;96548;-90
2021/07/03 07:16:56;;;;;;;;;;;;;;;26.01;42.17;101260.59;5049745;28;96629;-89
2021/07/03 07:19:23;;;;;;;;;;;;;;;25.86;42.79;101262.03;5046549;28;97261;-89
2021/07/03 07:21:49;;;;;;;;;;;;;;;26.20;42.00;101263.31;5037355;27;99010;-90
2021/07/03 07:24:16;;;;;;;;;;;;;;;26.32;42.09;101264.91;5043197;28;96602;-88
2021/07/03 07:26:46;;;;;;;;;;;;;;;26.79;41.53;101262.25;5047827;27;96847;-87
2021/07/03 07:29:13;;;;;;;;;;;;;;;26.73;41.54;101252.00;5056529;27;98267;-92
2021/07/03 07:31:45;;;;;;;;;;;;;;;26.79;41.31;101259.53;5045859;27;99882;-92
2021/07/03 07:36:54;;;;;;;;;;;;;;;26.72;41.53;101255.72;5040077;28;96794;-88
2021/07/03 07:39:24;;;;;;;;;;;;;;;25.62;43.36;101259.66;5043410;28;99759;-92
2021/07/03 07:41:50;;;;;;;;;;;;;;;25.48;43.98;101260.03;5046936;28;98893;-90
2021/07/03 07:44:16;;;;;;;;;;;;;;;26.21;42.53;101256.88;5041154;28;96622;-91
2021/07/03 07:46:44;;;;;;;;;;;;;;;26.29;42.48;101250.78;5032063;28;96901;-85
2021/07/03 07:49:11;;;;;;;;;;;;;;;26.30;42.54;101247.94;5030731;28;101031;-86
2021/07/03 07:56:59;;;;;;;;;;;;;;;27.84;39.89;101238.38;5042075;28;97755;-89
2021/07/03 07:59:27;;;;;;;;;;;;;;;27.59;39.24;101246.28;5043750;27;99028;-88
2021/07/03 08:01:55;;;;;;;;;;;;;;;27.77;38.61;101247.16;5042835;27;100146;-87
2021/07/03 08:04:22;;;;;;;;;;;;;;;27.50;38.96;101254.47;5041964;27;96756;-86
2021/07/03 08:06:49;;;;;;;;;;;;;;;26.77;40.43;101245.31;5039129;27;97744;-88
2021/07/03 08:11:57;;;;;;;;;;;;;;;25.89;42.29;101242.78;5047938;27;98766;-90
2021/07/03 08:14:24;;;;;;;;;;;;;;;27.26;39.63;101238.72;5044752;28;96950;-89
2021/07/03 08:16:55;;;;;;;;;;;;;;;27.85;38.35;101240.97;5046790;28;96559;-93
2021/07/03 08:22:25;;;;;;;;;;;;;;;27.97;38.48;101245.16;5053100;27;98910;-90
2021/07/03 08:24:53;;;;;;;;;;;;;;;26.04;41.44;101249.50;5044896;28;96752;-89
2021/07/03 08:27:20;;;;;;;;;;;;;;;26.27;41.58;101240.09;5061417;27;96852;-88
2021/07/03 08:32:32;;;;;;;;;;;;;;;27.15;39.61;101242.47;5052738;27;99066;-89
2021/07/03 08:34:58;;;;;;;;;;;;;;;27.20;38.46;101245.59;5043929;28;96804;-88
2021/07/03 08:37:34;;;;;;;;;;;;;;;26.32;40.00;101243.22;5043671;28;98602;-90
2021/07/03 08:40:03;;;;;;;;;;;;;;;26.35;39.50;101244.81;5044646;28;100233;-86
2021/07/03 08:42:29;;;;;;;;;;;;;;;26.87;39.39;101249.69;5046752;27;101046;-88
2021/07/03 08:44:58;;;;;;;;;;;;;;;27.46;38.59;101242.19;5048388;27;96702;-89
2021/07/03 08:47:25;;;;;;;;;;;;;;;27.08;38.97;101240.50;5046590;27;96927;-88
2021/07/03 08:49:53;;;;;;;;;;;;;;;26.69;40.04;101234.34;5055888;27;99803;-86
2021/07/03 08:52:19;;;;;;;;;;;;;;;26.61;39.96;101231.50;5049667;27;99142;-87
2021/07/03 08:54:55;;;;;;;;;;;;;;;26.32;40.51;101226.97;5044875;28;97422;-88
2021/07/03 08:57:31;;;;;;;;;;;;;;;27.35;38.84;101226.97;5051710;27;98662;-89
2021/07/03 08:59:57;;;;;;;;;;;;;;;27.71;37.27;101227.91;5044712;28;96923;-89
2021/07/03 09:02:31;;;;;;;;;;;;;;;27.81;37.15;101220.56;5048848;28;98854;-88
2021/07/03 09:05:05;;;;;;;;;;;;;;;27.75;37.70;101216.59;5048650;28;96863;-87
2021/07/03 09:07:34;;;;;;;;;;;;;;;27.55;38.11;101225.88;5046708;27;97237;-89
2021/07/03 09:10:03;;;;;;;;;;;;;;;27.52;37.61;101226.19;5054741;27;99250;-88
2021/07/03 09:12:31;;;;;;;;;;;;;;;27.76;37.71;101221.00;5052482;27;99843;-89
2021/07/03 09:15:08;;;;;;;;;;;;;;;27.81;37.35;101217.84;5042458;27;96751;-90
2021/07/03 09:17:47;;;;;;;;;;;;;;;27.09;38.88;101205.13;5044933;28;96714;-90
2021/07/03 09:20:21;;;;;;;;;;;;;;;27.00;39.56;101216.84;5049131;28;101263;-88
2021/07/03 09:22:50;;;;;;;;;;;;;;;27.88;37.74;101212.66;5042170;28;99788;-88
2021/07/03 09:25:37;;;;;;;;;;;;;;;28.69;36.48;101208.72;5041441;27;96987;-87
2021/07/03 09:28:40;;;;;;;;;;;;;;;28.41;35.68;101204.47;5030407;28;96727;-87
2021/07/03 09:31:10;;;;;;;;;;;;;;;28.89;35.12;101204.81;5041529;28;99965;-87
2021/07/03 09:33:40;;;;;;;;;;;;;;;29.05;34.85;101205.91;5049901;28;98843;-89
2021/07/03 09:36:15;;;;;;;;;;;;;;;28.11;36.26;101201.16;5059069;27;96367;-86
2021/07/03 09:38:43;;;;;;;;;;;;;;;27.89;36.77;101201.63;5058670;27;96765;-85
2021/07/03 09:41:13;;;;;;;;;;;;;;;27.30;37.65;101194.88;5059347;27;99355;-86
2021/07/03 09:43:54;;;;;;;;;;;;;;;27.19;37.66;101188.78;5046872;27;97717;-87
2021/07/03 09:49:06;;;;;;;;;;;;;;;27.15;37.90;101200.94;5052140;27;96857;-87
2021/07/03 09:51:36;;;;;;;;;;;;;;;27.03;37.43;101192.16;5060510;27;97150;-86
2021/07/03 09:54:04;;;;;;;;;;;;;;;28.62;34.19;101191.34;5044174;28;99182;-86
2021/07/03 09:56:43;;;;;;;;;;;;;;;28.93;33.40;101183.59;5056795;27;97493;-91
2021/07/03 09:59:24;;;;;;;;;;;;;;;28.62;34.09;101185.91;5050491;28;98257;-91
2021/07/03 10:02:00;;;;;;;;;;;;;;;27.96;35.20;101188.28;5055712;27;97548;-90
2021/07/03 10:04:40;;;;;;;;;;;;;;;28.15;34.97;101177.28;5050689;27;98043;-91
2021/07/03 10:07:17;;;;;;;;;;;;;;;28.06;34.23;101181.75;5054317;27;97139;-88
2021/07/03 10:21:34;;;;;;;;;;;;;;;29.02;32.14;101170.84;5043518;28;97735;-92
2021/07/03 10:24:24;;;;;;;;;;;;;;;29.67;32.20;101167.34;5054326;27;98069;-90
2021/07/03 10:27:01;;;;;;;;;;;;;;;29.84;31.79;101164.66;5034784;28;99690;-90
2021/07/03 10:29:29;;;;;;;;;;;;;;;29.56;32.52;101162.22;5035224;28;97172;-90
2021/07/03 10:34:42;;;;;;;;;;;;;;;28.43;33.94;101170.69;5032970;28;98826;-88
2021/07/03 10:37:10;;;;;;;;;;;;;;;28.55;34.16;101165.84;5031854;28;99774;-87
2021/07/03 10:39:38;;;;;;;;;;;;;;;28.54;33.91;101172.28;5060111;22;98493;-88
2021/07/03 10:42:06;;;;;;;;;;;;;;;28.65;33.68;101163.84;5059494;27;96821;-89
2021/07/03 10:44:44;;;;;;;;;;;;;;;29.15;32.27;101163.09;5052038;27;97303;-88
2021/07/03 10:47:19;;;;;;;;;;;;;;;28.71;32.93;101163.22;5056514;27;99218;-88
2021/07/03 10:49:48;;;;;;;;;;;;;;;28.71;33.78;101163.22;5051684;27;97395;-91
2021/07/03 10:52:16;;;;;;;;;;;;;;;28.28;33.96;101160.56;5068384;27;96540;-86
2021/07/03 10:54:45;;;;;;;;;;;;;;;28.27;34.74;101156.13;5070482;27;98143;-87
2021/07/03 10:57:24;;;;;;;;;;;;;;;27.83;35.46;101155.25;5067920;27;96593;-87
2021/07/03 11:00:02;;;;;;;;;;;;;;;28.12;35.26;101159.38;5057273;27;97043;-88
2021/07/03 11:08:11;;;;;;;;;;;;;;;28.88;33.69;101150.59;5239362;22;100892;-93
2021/07/03 11:10:40;;;;;;;;;;;;;;;28.90;32.45;101146.69;5019020;28;96085;-91
2021/07/03 11:29:02;;;;;;;;;;;;;;;28.88;32.43;101132.38;5022393;28;98119;-91
2021/07/03 11:37:37;;;;;;;;;;;;;;;29.87;30.97;101123.44;5033365;28;98828;-88
2021/07/03 11:46:14;;;;;;;;;;;;;;;30.20;30.36;101122.44;5103403;27;96417;-93
2021/07/03 11:51:58;;;;;;;;;;;;;;;29.87;30.70;101118.00;5074249;27;98779;-92
2021/07/03 11:57:17;;;;;;;;;;;;;;;29.51;30.34;101121.03;5071467;27;96669;-91
2021/07/03 12:02:44;;;;;;;;;;;;;;;29.66;30.59;101110.34;5070337;27;98521;-92
2021/07/03 12:08:15;;;;;;;;;;;;;;;29.09;31.69;101109.34;5156863;22;98494;-91
2021/07/03 12:13:41;;;;;;;;;;;;;;;30.07;30.39;101103.03;5048325;28;98589;-91
2021/07/03 12:16:10;;;;;;;;;;;;;;;30.06;29.92;101110.34;5049240;28;97939;-91
2021/07/03 12:29:39;;;;;;;;;;;;;;;29.66;30.33;101099.47;5084538;27;96515;-89
2021/07/03 12:32:19;;;;;;;;;;;;;;;29.58;31.04;101094.00;5099436;27;95917;-92
2021/07/03 12:37:25;;;;;;;;;;;;;;;29.65;30.94;101093.16;5923487;22;100216;-92
2021/07/03 12:56:27;;;;;;;;;;;;;;;29.58;29.70;101075.78;5068433;27;96522;-86
2021/07/03 13:18:24;;;;;;;;;;;;;;;30.10;28.84;101042.75;5056267;28;98940;-94
2021/07/03 13:34:50;;;;;;;;;;;;;;;33.95;22.99;101043.06;5052649;27;96501;-92
2021/07/03 13:37:33;;;;;;;;;;;;;;;34.28;22.22;101046.91;5058561;27;97133;-91
2021/07/03 13:51:28;;;;;;;;;;;;;;;35.22;21.48;101040.81;5063659;27;96885;-92
2021/07/03 14:05:17;;;;;;;;;;;;;;;36.26;19.23;101023.50;5043014;28;96756;-88
2021/07/03 14:08:00;;;;;;;;;;;;;;;37.01;18.52;101013.69;5025480;28;96714;-90
2021/07/03 14:24:07;;;;;;;;;;;;;;;40.69;14.73;101015.47;5054067;27;98528;-89
2021/07/03 14:26:50;;;;;;;;;;;;;;;43.67;12.84;101016.19;5055129;28;98326;-90
2021/07/03 14:32:07;;;;;;;;;;;;;;;47.34;9.26;101019.72;5062292;27;96282;-88
2021/07/03 14:34:34;;;;;;;;;;;;;;;47.23;9.60;101018.13;5042418;27;98803;-89
2021/07/03 14:37:10;;;;;;;;;;;;;;;47.47;9.69;101018.22;5055757;27;98672;-90
2021/07/03 14:47:47;;;;;;;;;;;;;;;49.06;7.74;101012.19;5048001;27;96295;-88
2021/07/03 15:01:27;;;;;;;;;;;;;;;48.00;9.28;100996.72;5061672;27;95903;-87
2021/07/03 15:03:59;;;;;;;;;;;;;;;46.99;9.27;100998.44;5063052;27;96088;-86
2021/07/03 15:06:29;;;;;;;;;;;;;;;49.82;8.19;100996.91;5062550;27;98907;-86
2021/07/03 15:25:14;;;;;;;;;;;;;;;35.20;19.25;100983.31;5061120;27;96038;-86
2021/07/03 15:36:05;;;;;;;;;;;;;;;30.60;26.16;100973.41;5046460;28;96664;-91
2021/07/03 15:38:41;;;;;;;;;;;;;;;31.71;23.90;100973.78;5032625;28;98014;-92
2021/07/03 15:54:59;;;;;;;;;;;;;;;33.07;21.79;100958.59;5053177;28;96519;-92
2021/07/03 16:03:04;;;;;;;;;;;;;;;33.32;21.41;100951.69;5052782;28;97670;-92
2021/07/03 16:08:22;;;;;;;;;;;;;;;32.80;21.89;100939.16;5056405;27;96633;-91
2021/07/03 16:19:31;;;;;;;;;;;;;;;31.61;24.40;100941.31;5053513;28;96569;-92
2021/07/03 16:21:57;;;;;;;;;;;;;;;31.61;24.04;100935.84;5052364;28;98130;-93
2021/07/03 16:24:24;;;;;;;;;;;;;;;31.37;24.98;100931.44;5054469;28;99122;-93
2021/07/03 16:26:57;;;;;;;;;;;;;;;30.82;25.23;100926.22;5041379;27;96599;-91
2021/07/03 17:26:05;;;;;;;;;;;;;;;29.73;26.92;100933.50;5060537;27;96069;-91
2021/07/03 17:31:19;;;;;;;;;;;;;;;29.15;27.67;100931.81;5060410;27;98593;-91
2021/07/03 17:39:25;;;;;;;;;;;;;;;29.40;27.61;100925.38;5060185;27;98895;-90
2021/07/03 17:45:12;;;;;;;;;;;;;;;29.05;28.17;100936.59;5060786;27;95913;-91
2021/07/03 17:47:54;;;;;;;;;;;;;;;28.48;29.02;100936.47;5049244;27;96701;-90
2021/07/03 18:07:35;;;;;;;;;;;;;;;28.55;28.77;100930.16;5042898;28;97122;-91
2021/07/03 18:10:19;;;;;;;;;;;;;;;28.39;29.02;100930.13;5054200;28;96748;-88
2021/07/03 18:13:08;;;;;;;;;;;;;;;28.29;29.13;100932.13;5056672;28;101400;-91
2021/07/03 18:18:46;;;;;;;;;;;;;;;27.77;29.84;100936.78;5039238;28;96945;-89
2021/07/03 18:46:13;;;;;;;;;;;;;;;27.38;31.13;100939.88;5039886;28;97619;-88
2021/07/03 18:51:33;;;;;;;;;;;;;;;27.57;30.96;100943.47;5042507;28;96700;-90
2021/07/03 18:54:08;;;;;;;;;;;;;;;27.92;30.54;100946.03;5042496;28;96747;-93
2021/07/03 18:56:39;;;;;;;;;;;;;;;27.87;30.60;100950.25;5049304;28;100016;-89
2021/07/03 18:59:06;;;;;;;;;;;;;;;28.04;30.20;100947.44;5055617;27;99233;-91
2021/07/03 19:01:50;;;;;;;;;;;;;;;27.85;30.79;100947.69;5023180;28;96625;-92
2021/07/03 19:07:08;;;;;;;;;;;;;;;28.02;30.52;100944.06;5051110;28;97954;-90
2021/07/03 19:09:44;;;;;;;;;;;;;;;27.62;31.66;100947.38;5054511;28;96853;-90
2021/07/03 19:12:12;;;;;;;;;;;;;;;27.79;31.09;100948.34;5060095;27;96580;-86
2021/07/03 19:17:21;;;;;;;;;;;;;;;27.72;31.07;100948.13;5048480;27;98230;-90
2021/07/03 19:22:34;;;;;;;;;;;;;;;27.65;30.85;100940.78;5046041;28;96558;-91
2021/07/03 19:27:42;;;;;;;;;;;;;;;27.79;31.01;100950.19;5057525;27;96721;-90
2021/07/03 19:32:54;;;;;;;;;;;;;;;27.72;31.30;100944.56;5042458;27;96771;-90
2021/07/03 19:41:23;;;;;;;;;;;;;;;27.73;31.83;100938.97;5029080;28;96783;-90
2021/07/03 19:49:24;;;;;;;;;;;;;;;27.65;32.02;100948.91;5046346;27;98805;-89
2021/07/03 19:52:05;;;;;;;;;;;;;;;27.78;31.88;100952.06;5059394;27;101282;-90
2021/07/03 19:54:44;;;;;;;;;;;;;;;27.67;31.96;100957.75;5064874;27;96496;-90
2021/07/03 19:59:54;;;;;;;;;;;;;;;27.21;34.80;100954.34;5042988;27;98895;-91
2021/07/03 20:02:24;;;;;;;;;;;;;;;27.38;34.80;100953.44;5055077;27;101498;-90
2021/07/03 20:04:55;;;;;;;;;;;;;;;27.44;34.75;100956.56;5057873;27;96148;-91
2021/07/03 20:07:23;;;;;;;;;;;;;;;27.08;35.20;100953.88;5063247;28;96016;-90
2021/07/03 20:12:33;;;;;;;;;;;;;;;27.24;35.67;100954.00;5038152;28;98649;-91
2021/07/03 20:14:59;;;;;;;;;;;;;;;27.14;35.64;100946.97;5048438;28;96613;-90
2021/07/03 20:17:27;;;;;;;;;;;;;;;27.27;35.93;100948.28;5050724;28;96866;-89
2021/07/03 20:22:39;;;;;;;;;;;;;;;26.86;36.70;100944.31;5053071;27;99233;-90
2021/07/03 20:25:17;;;;;;;;;;;;;;;26.92;36.01;100951.00;5047866;28;96779;-91
2021/07/03 20:30:37;;;;;;;;;;;;;;;26.75;36.31;100943.69;5051751;27;99888;-88